Junius, New York
Current Conditions -  °F | °C
As of 11:12 AM on Tuesday 21 Oct 2014 (Local Time) from KPEO Reporting Station
Overcast Overcast  
Wind Chill: 54°   Ceiling: 5500
Heat Index: 54°   Visibility: 10mi
Dew Point: 49°   Wind: 8mph
Humidity: 83%   Direction: 230°SW
Pressure: 29.85"   Gusts: NA
Location:  42.9454°N, 76.8904°W
Report Text: KPEO 211512Z AUTO 23007KT 10SM FEW008 SCT036 OVC055 12/09 A2985 RMK AO2 T01220094 $
Loading
Personal Weather Stations






























Interactive Weather Map
Tropical Storm Tracking
New forecast layout! Learn more

10-Day Weather Forecast

Advertisements
Track Severe Weather on mobile